createdAt,value
2023-01-21T00:01:02.302Z,-2.20
2023-01-21T00:03:29.438Z,-2.20
2023-01-21T00:05:58.512Z,-2.20
2023-01-21T00:08:26.734Z,-2.20
2023-01-21T00:10:54.035Z,-2.20
2023-01-21T00:13:21.425Z,-2.20
2023-01-21T00:15:48.749Z,-2.20
2023-01-21T00:18:15.976Z,-2.30
2023-01-21T00:20:43.204Z,-2.30
2023-01-21T00:23:11.102Z,-2.30
2023-01-21T00:25:38.124Z,-2.30
2023-01-21T00:28:05.377Z,-2.20
2023-01-21T00:30:32.598Z,-2.30
2023-01-21T00:32:59.843Z,-2.30
2023-01-21T00:35:26.980Z,-2.30
2023-01-21T00:37:54.455Z,-2.30
2023-01-21T00:40:21.911Z,-2.40
2023-01-21T00:42:49.097Z,-2.40
2023-01-21T00:45:16.460Z,-2.50
2023-01-21T00:47:43.808Z,-2.40
2023-01-21T00:50:11.571Z,-2.40
2023-01-21T00:52:39.089Z,-2.50
2023-01-21T00:55:06.761Z,-2.50
2023-01-21T00:57:33.920Z,-2.50
2023-01-21T01:00:01.140Z,-2.50
2023-01-21T01:02:28.435Z,-2.50
2023-01-21T01:04:55.679Z,-2.50
2023-01-21T01:07:22.839Z,-2.50
2023-01-21T01:09:50.079Z,-2.50
2023-01-21T01:12:17.300Z,-2.60
2023-01-21T01:14:44.464Z,-2.70
2023-01-21T01:17:11.734Z,-2.80
2023-01-21T01:19:38.917Z,-2.80
2023-01-21T01:22:06.165Z,-2.70
2023-01-21T01:24:33.189Z,-2.80
2023-01-21T01:27:00.213Z,-2.90
2023-01-21T01:29:28.694Z,-2.90
2023-01-21T01:31:55.885Z,-2.90
2023-01-21T01:34:23.110Z,-2.80
2023-01-21T01:36:50.423Z,-2.80
2023-01-21T01:39:17.547Z,-2.80
2023-01-21T01:41:44.806Z,-2.70
2023-01-21T01:44:49.109Z,-2.80
2023-01-21T01:47:16.612Z,-2.80
2023-01-21T01:49:44.146Z,-2.90
2023-01-21T01:52:13.032Z,-2.90
2023-01-21T01:54:44.304Z,-3.00
2023-01-21T01:57:16.112Z,-3.00
2023-01-21T01:59:44.433Z,-2.90
2023-01-21T02:02:18.293Z,-2.90
2023-01-21T02:04:53.337Z,-2.90
2023-01-21T02:07:24.375Z,-2.90
2023-01-21T02:09:53.478Z,-2.90
2023-01-21T02:12:21.260Z,-3.10
2023-01-21T02:14:49.384Z,-3.10
2023-01-21T02:17:17.553Z,-3.20
2023-01-21T02:19:53.477Z,-3.20
2023-01-21T02:22:35.615Z,-3.20
2023-01-21T02:25:45.479Z,-3.20
2023-01-21T02:28:31.010Z,-3.30
2023-01-21T02:31:29.437Z,-3.30
2023-01-21T02:34:20.856Z,-3.30
2023-01-21T02:37:12.144Z,-3.30
2023-01-21T02:40:09.305Z,-3.30
2023-01-21T02:42:47.954Z,-3.30
2023-01-21T02:45:22.717Z,-3.40
2023-01-21T02:48:13.225Z,-3.30
2023-01-21T02:50:50.289Z,-3.20
2023-01-21T02:53:27.481Z,-3.20
2023-01-21T02:55:55.196Z,-3.20
2023-01-21T02:58:31.336Z,-3.20
2023-01-21T03:01:08.341Z,-3.20
2023-01-21T03:03:41.598Z,-3.20
2023-01-21T03:06:30.616Z,-3.30
2023-01-21T03:09:13.941Z,-3.30
2023-01-21T03:11:45.802Z,-3.30
2023-01-21T03:15:10.653Z,-3.30
2023-01-21T03:17:48.320Z,-3.20
2023-01-21T03:20:22.748Z,-3.20
2023-01-21T03:22:57.009Z,-3.20
2023-01-21T03:25:25.879Z,-3.10
2023-01-21T03:27:54.509Z,-3.10
2023-01-21T03:30:24.466Z,-3.20
2023-01-21T03:32:52.653Z,-3.10
2023-01-21T03:35:29.048Z,-3.10
2023-01-21T03:38:01.391Z,-3.10
2023-01-21T03:40:38.452Z,-3.10
2023-01-21T03:43:05.737Z,-3.10
2023-01-21T03:45:44.380Z,-3.10
2023-01-21T03:48:26.980Z,-3.10
2023-01-21T03:51:00.436Z,-3.10
2023-01-21T03:53:28.407Z,-3.20
2023-01-21T03:55:55.440Z,-3.10
2023-01-21T03:58:22.574Z,-3.10
2023-01-21T04:00:49.820Z,-3.10
2023-01-21T04:03:17.104Z,-3.10
2023-01-21T04:05:44.195Z,-3.10
2023-01-21T04:08:11.495Z,-3.10
2023-01-21T04:10:38.599Z,-3.10
2023-01-21T04:13:05.626Z,-3.10
2023-01-21T04:15:32.803Z,-3.10
2023-01-21T04:18:00.499Z,-3.10
2023-01-21T04:20:27.597Z,-3.20
2023-01-21T04:22:54.643Z,-3.20
2023-01-21T04:25:21.751Z,-3.20
2023-01-21T04:27:48.939Z,-3.20
2023-01-21T04:30:16.532Z,-3.10
2023-01-21T04:32:43.678Z,-3.10
2023-01-21T04:35:11.009Z,-3.20
2023-01-21T04:37:38.220Z,-3.20
2023-01-21T04:40:05.961Z,-3.20
2023-01-21T04:42:33.103Z,-3.20
2023-01-21T04:45:00.474Z,-3.20
2023-01-21T04:47:27.622Z,-3.20
2023-01-21T04:49:54.932Z,-3.20
2023-01-21T04:52:24.176Z,-3.20
2023-01-21T04:54:51.255Z,-3.30
2023-01-21T04:57:18.716Z,-3.30
2023-01-21T04:59:46.010Z,-3.30
2023-01-21T05:02:13.315Z,-3.40
2023-01-21T05:04:40.429Z,-3.50
2023-01-21T05:07:07.753Z,-3.50
2023-01-21T05:09:35.032Z,-3.60
2023-01-21T05:12:02.344Z,-3.70
2023-01-21T05:14:29.890Z,-3.70
2023-01-21T05:16:57.053Z,-3.70
2023-01-21T05:19:24.283Z,-3.80
2023-01-21T05:21:51.514Z,-3.80
2023-01-21T05:24:19.010Z,-3.80
2023-01-21T05:26:46.238Z,-3.80
2023-01-21T05:29:13.424Z,-3.80
2023-01-21T05:31:40.637Z,-3.80
2023-01-21T05:34:07.908Z,-3.90
2023-01-21T05:36:35.468Z,-3.80
2023-01-21T05:39:03.111Z,-3.80
2023-01-21T05:41:30.462Z,-3.80
2023-01-21T05:43:57.664Z,-3.80
2023-01-21T05:46:24.972Z,-3.80
2023-01-21T05:48:52.086Z,-3.80
2023-01-21T05:51:19.253Z,-3.90
2023-01-21T05:53:46.512Z,-4.00
2023-01-21T05:56:13.645Z,-4.00
2023-01-21T05:58:40.837Z,-4.00
2023-01-21T06:01:07.939Z,-4.00
2023-01-21T06:03:35.969Z,-4.10
2023-01-21T06:06:03.202Z,-4.10
2023-01-21T06:08:30.347Z,-4.20
2023-01-21T06:10:57.699Z,-4.10
2023-01-21T06:13:25.322Z,-4.10
2023-01-21T06:15:58.410Z,-4.10
2023-01-21T06:18:25.866Z,-4.10
2023-01-21T06:20:53.414Z,-4.00
2023-01-21T06:23:20.543Z,-4.00
2023-01-21T06:25:47.918Z,-3.90
2023-01-21T06:28:15.528Z,-3.80
2023-01-21T06:30:42.827Z,-3.70
2023-01-21T06:33:10.047Z,-3.70
2023-01-21T06:35:37.437Z,-3.70
2023-01-21T06:38:04.693Z,-3.80
2023-01-21T06:40:31.947Z,-3.80
2023-01-21T06:42:59.166Z,-3.80
2023-01-21T06:45:26.584Z,-3.80
2023-01-21T06:47:53.739Z,-3.80
2023-01-21T06:50:20.900Z,-3.80
2023-01-21T06:52:49.116Z,-3.90
2023-01-21T06:55:17.428Z,-3.90
2023-01-21T06:57:44.908Z,-4.00
2023-01-21T07:00:13.128Z,-4.10
2023-01-21T07:02:40.485Z,-4.10
2023-01-21T07:05:08.220Z,-4.20
2023-01-21T07:07:35.681Z,-4.20
2023-01-21T07:10:03.460Z,-4.10
2023-01-21T07:12:30.761Z,-4.20
2023-01-21T07:15:00.869Z,-4.20
2023-01-21T07:17:28.052Z,-4.10
2023-01-21T07:19:55.192Z,-4.10
2023-01-21T07:22:22.394Z,-4.10
2023-01-21T07:24:49.674Z,-4.10
2023-01-21T07:27:17.081Z,-4.10
2023-01-21T07:29:44.391Z,-4.00
2023-01-21T07:32:11.563Z,-4.00
2023-01-21T07:34:38.808Z,-3.90
2023-01-21T07:37:06.062Z,-3.90
2023-01-21T07:39:33.363Z,-4.00
2023-01-21T07:42:00.493Z,-4.00
2023-01-21T07:44:28.850Z,-4.00
2023-01-21T07:46:56.206Z,-4.00
2023-01-21T07:49:23.635Z,-3.90
2023-01-21T07:51:50.908Z,-3.90
2023-01-21T07:54:18.121Z,-3.80
2023-01-21T07:56:45.362Z,-3.80
2023-01-21T07:59:13.513Z,-3.70
2023-01-21T08:01:40.948Z,-3.60
2023-01-21T08:04:10.074Z,-3.50
2023-01-21T08:06:38.281Z,-3.50
2023-01-21T08:09:05.801Z,-3.30
2023-01-21T08:11:33.298Z,-3.30
2023-01-21T08:14:00.550Z,-3.30
2023-01-21T08:16:28.174Z,-3.20
2023-01-21T08:18:55.494Z,-3.20
2023-01-21T08:21:22.792Z,-3.10
2023-01-21T08:23:49.911Z,-3.10
2023-01-21T08:26:17.725Z,-3.10
2023-01-21T08:28:45.159Z,-3.10
2023-01-21T08:31:14.089Z,-3.10
2023-01-21T08:33:42.414Z,-3.20
2023-01-21T08:36:10.093Z,-3.20
2023-01-21T08:38:38.541Z,-3.20
2023-01-21T08:41:06.020Z,-3.10
2023-01-21T08:43:33.521Z,-3.10
2023-01-21T08:46:01.902Z,-3.00
2023-01-21T08:48:30.602Z,-3.00
2023-01-21T08:51:01.334Z,-3.00
2023-01-21T08:53:28.775Z,-2.90
2023-01-21T08:56:01.227Z,-2.90
2023-01-21T08:58:29.943Z,-2.90
2023-01-21T09:00:57.573Z,-2.80
2023-01-21T09:03:25.360Z,-2.80
2023-01-21T09:05:53.294Z,-2.70
2023-01-21T09:08:20.687Z,-2.70
2023-01-21T09:11:03.137Z,-2.60
2023-01-21T09:13:32.525Z,-2.50
2023-01-21T09:16:00.305Z,-2.30
2023-01-21T09:18:27.991Z,-2.20
2023-01-21T09:20:59.876Z,-2.10
2023-01-21T09:23:27.952Z,-1.90
2023-01-21T09:26:10.517Z,-1.70
2023-01-21T09:28:39.094Z,-1.50
2023-01-21T09:31:12.174Z,-1.50
2023-01-21T09:33:41.983Z,-1.50
2023-01-21T09:36:12.933Z,-1.50
2023-01-21T09:38:45.749Z,-1.40
2023-01-21T09:41:22.108Z,-1.40
2023-01-21T09:44:28.287Z,-1.20
2023-01-21T09:47:05.053Z,-1.10
2023-01-21T09:49:43.026Z,-1.10
2023-01-21T09:52:37.909Z,-1.00
2023-01-21T09:55:07.698Z,-0.80
2023-01-21T09:57:46.744Z,-0.80
2023-01-21T10:00:23.885Z,-0.70
2023-01-21T10:03:06.011Z,-0.70
2023-01-21T10:06:01.098Z,-0.70
2023-01-21T10:09:01.713Z,-0.70
2023-01-21T10:12:07.493Z,-0.80
2023-01-21T10:14:49.640Z,-0.80
2023-01-21T10:17:38.540Z,-0.80
2023-01-21T10:20:18.568Z,-0.80
2023-01-21T10:23:03.490Z,-0.70
2023-01-21T10:25:33.098Z,-0.70
2023-01-21T10:28:05.745Z,-0.70
2023-01-21T10:30:54.705Z,-0.60
2023-01-21T10:33:27.753Z,-0.60
2023-01-21T10:36:18.818Z,-0.60
2023-01-21T10:39:00.031Z,-0.60
2023-01-21T10:41:33.448Z,-0.50
2023-01-21T10:44:04.390Z,-0.40
2023-01-21T10:46:41.778Z,-0.50
2023-01-21T10:49:24.362Z,-0.50
2023-01-21T10:52:16.204Z,-0.70
2023-01-21T10:54:51.614Z,-0.70
2023-01-21T10:57:46.510Z,-0.60
2023-01-21T11:00:27.180Z,-0.60
2023-01-21T11:02:59.085Z,-0.50
2023-01-21T11:05:27.357Z,-0.50
2023-01-21T11:07:55.524Z,-0.50
2023-01-21T11:10:27.547Z,-0.50
2023-01-21T11:12:56.049Z,-0.50
2023-01-21T11:15:24.484Z,-0.60
2023-01-21T11:17:59.886Z,-0.60
2023-01-21T11:20:39.945Z,-0.70
2023-01-21T11:23:24.726Z,-0.60
2023-01-21T11:25:51.889Z,-0.60
2023-01-21T11:28:32.519Z,-0.60
2023-01-21T11:31:26.661Z,-0.50
2023-01-21T11:33:55.219Z,-0.50
2023-01-21T11:36:22.576Z,-0.60
2023-01-21T11:39:13.351Z,-0.50
2023-01-21T11:41:49.011Z,-0.50
2023-01-21T11:44:21.267Z,-0.40
2023-01-21T11:46:48.799Z,-0.40
2023-01-21T11:49:15.942Z,-0.40
2023-01-21T11:51:46.330Z,-0.30
2023-01-21T11:54:22.326Z,-0.30
2023-01-21T11:56:56.842Z,-0.20
2023-01-21T11:59:41.396Z,-0.10
2023-01-21T12:02:16.340Z,0.00
2023-01-21T12:05:09.716Z,0.10
2023-01-21T12:07:41.030Z,0.10
2023-01-21T12:10:43.212Z,0.10
2023-01-21T12:13:10.358Z,0.10
2023-01-21T12:16:14.778Z,0.20
2023-01-21T12:19:07.110Z,0.30
2023-01-21T12:22:11.712Z,0.30
2023-01-21T12:24:50.941Z,0.20
2023-01-21T12:27:36.697Z,0.20
2023-01-21T12:30:30.937Z,0.20
2023-01-21T12:33:01.006Z,0.20
2023-01-21T12:35:35.874Z,0.20
2023-01-21T12:38:07.999Z,0.30
2023-01-21T12:40:41.203Z,0.30
2023-01-21T12:43:25.609Z,0.30
2023-01-21T12:45:57.296Z,0.30
2023-01-21T12:48:30.811Z,0.40
2023-01-21T12:51:05.248Z,0.40
2023-01-21T12:53:32.469Z,0.40
2023-01-21T12:56:11.570Z,0.40
2023-01-21T12:58:49.518Z,0.30
2023-01-21T13:01:35.111Z,0.40
2023-01-21T13:04:36.288Z,0.40
2023-01-21T13:07:15.156Z,0.40
2023-01-21T13:09:55.391Z,0.50
2023-01-21T13:12:26.252Z,0.50
2023-01-21T13:15:04.424Z,0.60
2023-01-21T13:17:38.540Z,0.70
2023-01-21T13:20:19.359Z,0.80
2023-01-21T13:22:49.930Z,0.70
2023-01-21T13:25:41.565Z,0.50
2023-01-21T13:28:14.844Z,0.50
2023-01-21T13:30:48.256Z,0.40
2023-01-21T13:33:44.954Z,0.40
2023-01-21T13:36:34.342Z,0.40
2023-01-21T13:39:21.360Z,0.40
2023-01-21T13:42:20.378Z,0.50
2023-01-21T13:45:13.508Z,0.40
2023-01-21T13:47:43.658Z,0.30
2023-01-21T13:50:24.850Z,0.30
2023-01-21T13:53:20.821Z,0.30
2023-01-21T13:56:09.429Z,0.30
2023-01-21T13:58:48.883Z,0.20
2023-01-21T14:01:25.047Z,0.20
2023-01-21T14:03:56.717Z,0.20
2023-01-21T14:06:40.017Z,0.20
2023-01-21T14:09:22.817Z,0.10
2023-01-21T14:11:56.817Z,0.10
2023-01-21T14:14:31.033Z,0.10
2023-01-21T14:17:07.866Z,0.10
2023-01-21T14:19:34.876Z,0.00
2023-01-21T14:22:36.040Z,0.00
2023-01-21T14:25:03.281Z,0.10
2023-01-21T14:28:17.620Z,0.00
2023-01-21T14:31:10.810Z,0.00
2023-01-21T14:33:48.870Z,0.00
2023-01-21T14:36:21.176Z,0.00
2023-01-21T14:39:24.799Z,0.00
2023-01-21T14:42:13.027Z,0.00
2023-01-21T14:44:59.563Z,0.00
2023-01-21T14:47:29.564Z,0.00
2023-01-21T14:49:59.097Z,0.00
2023-01-21T14:52:46.779Z,0.10
2023-01-21T14:55:32.101Z,0.10
2023-01-21T14:58:02.037Z,0.10
2023-01-21T15:00:33.949Z,0.10
2023-01-21T15:03:07.139Z,0.10
2023-01-21T15:05:37.003Z,0.00
2023-01-21T15:08:07.407Z,0.00
2023-01-21T15:10:38.151Z,0.00
2023-01-21T15:13:35.003Z,-0.10
2023-01-21T15:16:14.083Z,0.00
2023-01-21T15:18:45.785Z,0.00
2023-01-21T15:21:34.894Z,0.00
2023-01-21T15:24:21.411Z,0.10
2023-01-21T15:27:12.987Z,0.10
2023-01-21T15:30:03.338Z,0.10
2023-01-21T15:32:48.308Z,0.20
2023-01-21T15:35:34.600Z,0.10
2023-01-21T15:38:15.817Z,0.10
2023-01-21T15:40:52.663Z,0.00
2023-01-21T15:43:39.951Z,0.00
2023-01-21T15:46:30.400Z,-0.10
2023-01-21T15:49:34.654Z,-0.10
2023-01-21T15:52:20.622Z,-0.10
2023-01-21T15:55:09.293Z,-0.20
2023-01-21T15:57:54.467Z,-0.20
2023-01-21T16:00:52.062Z,-0.30
2023-01-21T16:03:19.358Z,-0.30
2023-01-21T16:06:02.546Z,-0.40
2023-01-21T16:09:05.746Z,-0.40
2023-01-21T16:11:44.845Z,-0.40
2023-01-21T16:14:22.346Z,-0.40
2023-01-21T16:17:18.418Z,-0.40
2023-01-21T16:19:50.391Z,-0.40
2023-01-21T16:22:27.285Z,-0.40
2023-01-21T16:25:03.241Z,-0.40
2023-01-21T16:27:32.307Z,-0.40
2023-01-21T16:30:26.866Z,-0.40
2023-01-21T16:33:26.602Z,-0.40
2023-01-21T16:35:57.244Z,-0.40
2023-01-21T16:38:26.719Z,-0.40
2023-01-21T16:41:21.654Z,-0.50
2023-01-21T16:44:00.661Z,-0.50
2023-01-21T16:46:40.588Z,-0.50
2023-01-21T16:49:16.876Z,-0.50
2023-01-21T16:52:03.243Z,-0.60
2023-01-21T16:54:32.905Z,-0.60
2023-01-21T16:57:01.560Z,-0.60
2023-01-21T16:59:40.143Z,-0.70
2023-01-21T17:02:17.368Z,-0.70
2023-01-21T17:04:45.303Z,-0.70
2023-01-21T17:07:21.657Z,-0.80
2023-01-21T17:09:57.226Z,-0.80
2023-01-21T17:12:27.114Z,-0.80
2023-01-21T17:15:16.555Z,-0.80
2023-01-21T17:17:44.107Z,-0.90
2023-01-21T17:20:33.458Z,-0.90
2023-01-21T17:23:23.777Z,-0.90
2023-01-21T17:25:59.697Z,-0.90
2023-01-21T17:28:39.827Z,-0.90
2023-01-21T17:31:16.165Z,-0.90
2023-01-21T17:33:44.440Z,-0.90
2023-01-21T17:36:16.247Z,-0.90
2023-01-21T17:38:47.091Z,-0.90
2023-01-21T17:41:32.105Z,-0.90
2023-01-21T17:44:00.727Z,-0.90
2023-01-21T17:46:31.389Z,-1.00
2023-01-21T17:49:07.652Z,-1.00
2023-01-21T17:51:35.878Z,-1.00
2023-01-21T17:54:05.947Z,-1.00
2023-01-21T17:56:49.713Z,-1.00
2023-01-21T17:59:28.292Z,-1.00
2023-01-21T18:01:56.363Z,-1.00
2023-01-21T18:04:23.908Z,-1.00
2023-01-21T18:06:53.223Z,-1.00
2023-01-21T18:09:22.624Z,-1.00
2023-01-21T18:11:51.804Z,-1.00
2023-01-21T18:14:24.197Z,-1.00
2023-01-21T18:16:53.719Z,-1.00
2023-01-21T18:19:36.449Z,-1.10
2023-01-21T18:22:05.515Z,-1.10
2023-01-21T18:24:33.291Z,-1.10
2023-01-21T18:27:02.283Z,-1.10
2023-01-21T18:29:30.837Z,-1.10
2023-01-21T18:31:59.117Z,-1.10
2023-01-21T18:34:26.399Z,-1.10
2023-01-21T18:36:54.040Z,-1.10
2023-01-21T18:39:21.661Z,-1.10
2023-01-21T18:41:50.981Z,-1.20
2023-01-21T18:44:18.219Z,-1.20
2023-01-21T18:46:45.411Z,-1.20
2023-01-21T18:49:20.555Z,-1.20
2023-01-21T18:51:48.121Z,-1.20
2023-01-21T18:54:16.773Z,-1.20
2023-01-21T18:56:44.642Z,-1.20
2023-01-21T18:59:14.533Z,-1.30
2023-01-21T19:01:42.954Z,-1.30
2023-01-21T19:04:14.454Z,-1.30
2023-01-21T19:06:50.569Z,-1.30
2023-01-21T19:09:17.776Z,-1.30
2023-01-21T19:11:44.977Z,-1.30
2023-01-21T19:14:12.369Z,-1.30
2023-01-21T19:16:40.844Z,-1.30
2023-01-21T19:19:21.548Z,-1.30
2023-01-21T19:21:48.633Z,-1.30
2023-01-21T19:24:15.713Z,-1.30
2023-01-21T19:26:42.972Z,-1.30
2023-01-21T19:29:17.865Z,-1.30
2023-01-21T19:31:45.003Z,-1.30
2023-01-21T19:34:12.105Z,-1.30
2023-01-21T19:36:40.271Z,-1.30
2023-01-21T19:39:18.263Z,-1.30
2023-01-21T19:41:45.569Z,-1.30
2023-01-21T19:44:12.634Z,-1.30
2023-01-21T19:46:39.938Z,-1.30
2023-01-21T19:49:16.270Z,-1.30
2023-01-21T19:51:44.574Z,-1.30
2023-01-21T19:54:12.016Z,-1.30
2023-01-21T19:56:39.011Z,-1.30
2023-01-21T19:59:06.146Z,-1.30
2023-01-21T20:01:33.302Z,-1.30
2023-01-21T20:04:01.798Z,-1.30
2023-01-21T20:06:34.589Z,-1.30
2023-01-21T20:09:01.928Z,-1.30
2023-01-21T20:11:29.065Z,-1.30
2023-01-21T20:13:56.239Z,-1.30
2023-01-21T20:16:24.275Z,-1.30
2023-01-21T20:18:58.158Z,-1.30
2023-01-21T20:21:25.576Z,-1.30
2023-01-21T20:23:53.649Z,-1.30
2023-01-21T20:26:27.032Z,-1.30
2023-01-21T20:28:54.778Z,-1.30
2023-01-21T20:31:23.090Z,-1.30
2023-01-21T20:33:50.226Z,-1.20
2023-01-21T20:36:21.306Z,-1.20
2023-01-21T20:38:48.447Z,-1.30
2023-01-21T20:41:15.972Z,-1.20
2023-01-21T20:43:44.396Z,-1.20
2023-01-21T20:46:18.519Z,-1.20
2023-01-21T20:48:45.760Z,-1.20
2023-01-21T20:51:12.941Z,-1.20
2023-01-21T20:53:40.122Z,-1.20
2023-01-21T20:56:24.481Z,-1.20
2023-01-21T20:58:51.752Z,-1.30
2023-01-21T21:01:24.293Z,-1.30
2023-01-21T21:03:51.852Z,-1.30
2023-01-21T21:06:21.864Z,-1.30
2023-01-21T21:08:49.841Z,-1.30
2023-01-21T21:11:18.918Z,-1.20
2023-01-21T21:13:48.543Z,-1.20
2023-01-21T21:16:20.725Z,-1.20
2023-01-21T21:18:49.109Z,-1.20
2023-01-21T21:21:17.774Z,-1.10
2023-01-21T21:23:48.130Z,-1.20
2023-01-21T21:26:24.168Z,-1.20
2023-01-21T21:28:55.169Z,-1.10
2023-01-21T21:31:23.251Z,-1.20
2023-01-21T21:33:51.840Z,-1.20
2023-01-21T21:36:21.990Z,-1.20
2023-01-21T21:38:52.368Z,-1.10
2023-01-21T21:41:40.573Z,-1.20
2023-01-21T21:44:09.137Z,-1.20
2023-01-21T21:46:58.688Z,-1.20
2023-01-21T21:49:26.265Z,-1.20
2023-01-21T21:51:53.616Z,-1.20
2023-01-21T21:54:21.454Z,-1.20
2023-01-21T21:56:50.590Z,-1.20
2023-01-21T21:59:18.279Z,-1.20
2023-01-21T22:01:45.295Z,-1.20
2023-01-21T22:04:12.893Z,-1.20
2023-01-21T22:06:40.052Z,-1.20
2023-01-21T22:09:07.704Z,-1.10
2023-01-21T22:11:34.831Z,-1.10
2023-01-21T22:14:04.542Z,-1.10
2023-01-21T22:16:35.534Z,-1.10
2023-01-21T22:19:06.422Z,-1.10
2023-01-21T22:21:34.585Z,-1.10
2023-01-21T22:24:03.554Z,-1.10
2023-01-21T22:26:30.965Z,-1.10
2023-01-21T22:28:58.056Z,-1.10
2023-01-21T22:31:27.642Z,-1.10
2023-01-21T22:33:55.532Z,-1.10
2023-01-21T22:36:24.923Z,-1.10
2023-01-21T22:38:52.809Z,-1.10
2023-01-21T22:41:22.718Z,-1.00
2023-01-21T22:43:51.121Z,-1.00
2023-01-21T22:46:21.080Z,-0.90
2023-01-21T22:48:48.317Z,-0.80
2023-01-21T22:51:17.582Z,-0.70
2023-01-21T22:53:45.137Z,-0.60
2023-01-21T22:56:15.680Z,-0.60
2023-01-21T22:58:43.726Z,-0.60
2023-01-21T23:01:26.635Z,-0.50
2023-01-21T23:03:54.238Z,-0.50
2023-01-21T23:06:23.009Z,-0.50
2023-01-21T23:08:54.199Z,-0.40
2023-01-21T23:11:21.668Z,-0.50
2023-01-21T23:13:53.423Z,-0.40
2023-01-21T23:16:21.291Z,-0.40
2023-01-21T23:18:49.171Z,-0.40
2023-01-21T23:21:21.395Z,-0.40
2023-01-21T23:23:49.389Z,-0.40
2023-01-21T23:26:19.380Z,-0.40
2023-01-21T23:28:47.853Z,-0.40
2023-01-21T23:31:17.360Z,-0.30
2023-01-21T23:33:44.970Z,-0.30
2023-01-21T23:36:15.433Z,-0.30
2023-01-21T23:38:43.814Z,-0.20
2023-01-21T23:41:13.572Z,-0.30
2023-01-21T23:43:41.128Z,-0.20
2023-01-21T23:46:19.805Z,-0.20
2023-01-21T23:48:47.205Z,-0.20
2023-01-21T23:51:16.018Z,-0.20
2023-01-21T23:53:43.522Z,-0.20
2023-01-21T23:56:16.239Z,-0.20
2023-01-21T23:58:43.317Z,-0.20
